Time;durP1;ratioP1;P1;durP2;ratioP2;P2;SDS_P1;SDS_P2;PMS_P1;PMS_P2;Temp;Humidity;BMP_temperature;BMP_pressure;BME280_temperature;BME280_humidity;BME280_pressure;Samples;Min_cycle;Max_cycle;Signal;HPM_P1;HPM_P2
2023/03/31 00:00:35;;;;;;;6.40;2.95;;;;;;;;;;5052101;28;20911;-61
2023/03/31 00:03:01;;;;;;;9.45;2.42;;;;;;;;;;5063155;28;20379;-61
2023/03/31 00:05:27;;;;;;;9.70;3.13;;;;;;;;;;5066749;28;20033;-61
2023/03/31 00:07:59;;;;;;;9.52;3.55;;;;;;;;;;5038757;28;20024;-61
2023/03/31 00:10:25;;;;;;;8.88;2.65;;;;;;;;;;5046770;28;20062;-61
2023/03/31 00:12:50;;;;;;;8.98;2.80;;;;;;;;;;5046428;28;20847;-61
2023/03/31 00:15:15;;;;;;;13.52;3.25;;;;;;;;;;5042393;28;20026;-61
2023/03/31 00:17:42;;;;;;;5.75;1.95;;;;;;;;;;5057855;28;20047;-61
2023/03/31 00:20:11;;;;;;;11.43;3.33;;;;;;;;;;5048079;28;20072;-61
2023/03/31 00:22:37;;;;;;;7.82;3.03;;;;;;;;;;5039752;28;20027;-61
2023/03/31 00:25:03;;;;;;;7.55;3.42;;;;;;;;;;5051105;28;20093;-61
2023/03/31 00:27:28;;;;;;;11.05;3.63;;;;;;;;;;5047522;28;20020;-62
2023/03/31 00:29:54;;;;;;;15.23;3.47;;;;;;;;;;5041562;28;20809;-62
2023/03/31 00:32:19;;;;;;;6.93;3.17;;;;;;;;;;5074155;28;20033;-61
2023/03/31 00:34:45;;;;;;;11.55;3.70;;;;;;;;;;5074226;28;20037;-62
2023/03/31 00:37:14;;;;;;;18.08;4.30;;;;;;;;;;5075272;28;20020;-61
2023/03/31 00:39:41;;;;;;;13.43;4.13;;;;;;;;;;5042864;28;20122;-61
2023/03/31 00:42:07;;;;;;;22.05;4.00;;;;;;;;;;5040545;28;20903;-61
2023/03/31 00:44:34;;;;;;;17.80;3.95;;;;;;;;;;5039152;28;20025;-61
2023/03/31 00:47:02;;;;;;;8.82;3.25;;;;;;;;;;5044518;28;20059;-61
2023/03/31 00:49:30;;;;;;;13.88;4.10;;;;;;;;;;5040468;28;20029;-61
2023/03/31 00:51:59;;;;;;;12.20;4.32;;;;;;;;;;5042000;28;20024;-61
2023/03/31 00:54:25;;;;;;;11.93;3.72;;;;;;;;;;5045094;28;20077;-62
2023/03/31 00:56:54;;;;;;;14.05;4.45;;;;;;;;;;5043164;28;20043;-61
2023/03/31 00:59:20;;;;;;;10.95;3.85;;;;;;;;;;5052408;28;20028;-62
2023/03/31 01:01:46;;;;;;;17.38;4.78;;;;;;;;;;5039888;28;20025;-61
2023/03/31 01:04:13;;;;;;;13.63;4.18;;;;;;;;;;5054575;28;20024;-62
2023/03/31 01:06:45;;;;;;;11.95;4.55;;;;;;;;;;5043439;28;20139;-61
2023/03/31 01:09:12;;;;;;;14.05;4.15;;;;;;;;;;5054146;28;20614;-61
2023/03/31 01:11:39;;;;;;;16.33;4.70;;;;;;;;;;5039021;28;20029;-61
2023/03/31 01:14:04;;;;;;;11.43;4.63;;;;;;;;;;5057657;28;20016;-62
2023/03/31 01:16:30;;;;;;;13.10;5.00;;;;;;;;;;5046322;28;20082;-62
2023/03/31 01:18:56;;;;;;;20.05;5.43;;;;;;;;;;5082893;28;20432;-62
2023/03/31 01:21:58;;;;;;;14.05;4.55;;;;;;;;;;5074109;28;20078;-62
2023/03/31 01:24:34;;;;;;;19.13;5.30;;;;;;;;;;4974767;28;20141;-62
2023/03/31 01:27:16;;;;;;;20.05;4.90;;;;;;;;;;5067994;28;20072;-62
2023/03/31 01:29:44;;;;;;;17.45;6.00;;;;;;;;;;5080074;28;20352;-62
2023/03/31 01:32:20;;;;;;;20.30;5.82;;;;;;;;;;5073535;28;20043;-61
2023/03/31 01:34:51;;;;;;;17.70;5.40;;;;;;;;;;5073201;28;20498;-62
2023/03/31 01:37:36;;;;;;;14.00;5.75;;;;;;;;;;5073424;28;20089;-62
2023/03/31 01:40:07;;;;;;;13.77;5.15;;;;;;;;;;5058639;28;20061;-62
2023/03/31 01:42:45;;;;;;;20.33;6.13;;;;;;;;;;5073344;28;20025;-61
2023/03/31 01:45:29;;;;;;;21.63;5.75;;;;;;;;;;5061042;28;20020;-62
2023/03/31 01:47:59;;;;;;;18.30;5.55;;;;;;;;;;5036889;28;20020;-61
2023/03/31 01:50:24;;;;;;;16.15;5.40;;;;;;;;;;5054201;28;20536;-62
2023/03/31 01:52:59;;;;;;;14.68;4.93;;;;;;;;;;5072276;28;20119;-61
2023/03/31 01:55:57;;;;;;;14.85;5.57;;;;;;;;;;5056352;28;20032;-61
2023/03/31 01:58:24;;;;;;;16.90;5.18;;;;;;;;;;5007416;28;20052;-61
2023/03/31 02:01:10;;;;;;;19.20;6.25;;;;;;;;;;5048053;28;20031;-62
2023/03/31 02:03:42;;;;;;;18.65;5.40;;;;;;;;;;5055597;28;20495;-61
2023/03/31 02:06:13;;;;;;;18.13;4.80;;;;;;;;;;5071996;28;20020;-62
2023/03/31 02:08:54;;;;;;;21.63;5.63;;;;;;;;;;5074152;28;20035;-61
2023/03/31 02:11:20;;;;;;;14.90;4.72;;;;;;;;;;5042148;28;20032;-61
2023/03/31 02:13:48;;;;;;;14.88;5.80;;;;;;;;;;5042326;28;20024;-61
2023/03/31 02:16:17;;;;;;;17.48;5.22;;;;;;;;;;5041458;28;20070;-61
2023/03/31 02:18:45;;;;;;;11.05;4.32;;;;;;;;;;5049687;28;20031;-62
2023/03/31 02:21:11;;;;;;;12.82;4.25;;;;;;;;;;5045634;28;20032;-61
2023/03/31 02:23:37;;;;;;;15.93;4.53;;;;;;;;;;5041976;28;20031;-61
2023/03/31 02:26:04;;;;;;;11.07;4.65;;;;;;;;;;5064274;28;20028;-61
2023/03/31 02:28:30;;;;;;;16.30;4.75;;;;;;;;;;5079004;28;20024;-62
2023/03/31 02:31:10;;;;;;;11.75;4.18;;;;;;;;;;5078452;28;20463;-61
2023/03/31 02:33:35;;;;;;;9.85;3.42;;;;;;;;;;5077893;28;20174;-62
2023/03/31 02:36:01;;;;;;;13.13;4.20;;;;;;;;;;5065706;28;20123;-61
2023/03/31 02:38:27;;;;;;;13.98;4.28;;;;;;;;;;5039933;28;20089;-61
2023/03/31 02:40:52;;;;;;;13.50;3.80;;;;;;;;;;5041868;28;20031;-61
2023/03/31 02:43:17;;;;;;;14.65;3.70;;;;;;;;;;5047345;28;20821;-61
2023/03/31 02:45:44;;;;;;;13.20;3.92;;;;;;;;;;5067139;28;20432;-62
2023/03/31 02:48:12;;;;;;;10.77;3.47;;;;;;;;;;5060125;28;20020;-61
2023/03/31 02:50:52;;;;;;;10.25;3.80;;;;;;;;;;5042148;28;20034;-61
2023/03/31 02:53:25;;;;;;;13.50;3.55;;;;;;;;;;5040007;28;20139;-61
2023/03/31 02:56:06;;;;;;;11.80;3.85;;;;;;;;;;5038122;28;20127;-61
2023/03/31 02:58:44;;;;;;;9.50;2.97;;;;;;;;;;5039382;28;20028;-61
2023/03/31 03:01:09;;;;;;;9.80;3.53;;;;;;;;;;5069526;28;20020;-61
2023/03/31 03:03:37;;;;;;;9.07;3.22;;;;;;;;;;5041096;28;20028;-61
2023/03/31 03:06:12;;;;;;;12.40;3.92;;;;;;;;;;5036679;28;20024;-61
2023/03/31 03:08:43;;;;;;;16.67;3.00;;;;;;;;;;5038948;28;20035;-62
2023/03/31 03:11:16;;;;;;;13.07;2.88;;;;;;;;;;5046442;28;20869;-61
2023/03/31 03:13:42;;;;;;;11.63;2.97;;;;;;;;;;5039437;28;20036;-61
2023/03/31 03:16:12;;;;;;;9.10;2.70;;;;;;;;;;5075982;28;20029;-61
2023/03/31 03:18:38;;;;;;;7.45;2.90;;;;;;;;;;5071567;28;20290;-61
2023/03/31 03:21:03;;;;;;;11.50;3.80;;;;;;;;;;5071817;28;20536;-61
2023/03/31 03:23:28;;;;;;;10.00;2.80;;;;;;;;;;5076001;28;20016;-62
2023/03/31 03:25:54;;;;;;;7.30;2.90;;;;;;;;;;5075959;28;20029;-61
2023/03/31 03:28:19;;;;;;;10.60;3.17;;;;;;;;;;5050244;28;20016;-61
2023/03/31 03:30:45;;;;;;;15.65;3.47;;;;;;;;;;5042896;28;20020;-61
2023/03/31 03:33:15;;;;;;;9.75;3.00;;;;;;;;;;5042001;28;20039;-61
2023/03/31 03:35:40;;;;;;;12.68;3.30;;;;;;;;;;5064774;28;20017;-61
2023/03/31 03:38:06;;;;;;;8.32;2.65;;;;;;;;;;5071369;28;20029;-61
2023/03/31 03:40:31;;;;;;;10.73;2.75;;;;;;;;;;5071096;28;20437;-61
2023/03/31 03:42:56;;;;;;;12.70;2.60;;;;;;;;;;5071639;28;20029;-61
2023/03/31 03:45:21;;;;;;;9.48;2.50;;;;;;;;;;5045912;28;20943;-61
2023/03/31 03:47:47;;;;;;;7.75;2.53;;;;;;;;;;5057760;28;20051;-61
2023/03/31 03:50:12;;;;;;;7.05;2.53;;;;;;;;;;5049135;28;20853;-61
2023/03/31 03:52:38;;;;;;;5.30;2.10;;;;;;;;;;5040699;28;20032;-61
2023/03/31 03:55:04;;;;;;;4.53;1.83;;;;;;;;;;5054201;28;20016;-61
2023/03/31 03:57:29;;;;;;;6.95;2.33;;;;;;;;;;5063706;28;20249;-61
2023/03/31 03:59:55;;;;;;;11.30;3.22;;;;;;;;;;5061922;28;20025;-61
2023/03/31 04:02:20;;;;;;;4.57;2.00;;;;;;;;;;5064916;28;20036;-61
2023/03/31 04:04:46;;;;;;;7.53;2.08;;;;;;;;;;5068612;28;20119;-61
2023/03/31 04:07:12;;;;;;;11.10;2.67;;;;;;;;;;5047585;28;20131;-61
2023/03/31 04:09:37;;;;;;;6.47;2.42;;;;;;;;;;5055780;28;20042;-61
2023/03/31 04:12:02;;;;;;;4.47;1.70;;;;;;;;;;5076697;28;20099;-61
2023/03/31 04:14:27;;;;;;;9.75;1.98;;;;;;;;;;5046799;28;20109;-61
2023/03/31 04:16:55;;;;;;;4.97;1.80;;;;;;;;;;5047112;28;20039;-61
2023/03/31 04:19:20;;;;;;;7.60;2.35;;;;;;;;;;5043324;28;20843;-61
2023/03/31 04:21:49;;;;;;;8.50;1.95;;;;;;;;;;5052243;28;20035;-62
2023/03/31 04:24:20;;;;;;;6.45;2.10;;;;;;;;;;5047770;28;20024;-61
2023/03/31 04:26:45;;;;;;;4.68;2.00;;;;;;;;;;5046655;28;20037;-61
2023/03/31 04:29:15;;;;;;;6.93;2.03;;;;;;;;;;5049105;28;20024;-61
2023/03/31 04:31:43;;;;;;;6.15;2.38;;;;;;;;;;5042728;28;20078;-61
2023/03/31 04:34:12;;;;;;;8.80;2.55;;;;;;;;;;5045913;28;20735;-61
2023/03/31 04:36:41;;;;;;;6.07;2.33;;;;;;;;;;5068605;28;20034;-61
2023/03/31 04:39:09;;;;;;;4.68;1.67;;;;;;;;;;5074165;28;20032;-61
2023/03/31 04:41:34;;;;;;;5.85;1.75;;;;;;;;;;5073942;28;20051;-61
2023/03/31 04:44:00;;;;;;;6.63;1.98;;;;;;;;;;5074529;28;20021;-61
2023/03/31 04:46:26;;;;;;;7.22;2.33;;;;;;;;;;5074123;28;20017;-61
2023/03/31 04:48:52;;;;;;;5.40;2.17;;;;;;;;;;5062541;28;20041;-61
2023/03/31 04:51:19;;;;;;;4.93;2.30;;;;;;;;;;5046161;28;20029;-61
2023/03/31 04:53:44;;;;;;;6.40;2.03;;;;;;;;;;5051662;28;20016;-61
2023/03/31 04:56:10;;;;;;;6.40;1.60;;;;;;;;;;5057385;28;20020;-62
2023/03/31 04:58:35;;;;;;;6.15;2.45;;;;;;;;;;5053113;28;20039;-62
2023/03/31 05:01:00;;;;;;;4.43;1.65;;;;;;;;;;5063717;28;20025;-61
2023/03/31 05:03:25;;;;;;;4.75;2.10;;;;;;;;;;5063416;28;20027;-61
2023/03/31 05:05:51;;;;;;;6.75;2.05;;;;;;;;;;5042924;28;20146;-62
2023/03/31 05:08:16;;;;;;;6.53;1.85;;;;;;;;;;5066457;28;20147;-62
2023/03/31 05:10:41;;;;;;;8.38;2.53;;;;;;;;;;5056754;28;20084;-61
2023/03/31 05:13:08;;;;;;;7.93;2.38;;;;;;;;;;5043377;28;20021;-61
2023/03/31 05:15:36;;;;;;;6.00;1.90;;;;;;;;;;5040959;28;20090;-60
2023/03/31 05:18:01;;;;;;;4.60;2.17;;;;;;;;;;5039342;28;20900;-60
2023/03/31 05:20:26;;;;;;;4.15;1.55;;;;;;;;;;5040196;28;20086;-60
2023/03/31 05:22:51;;;;;;;7.80;2.85;;;;;;;;;;5041938;28;20168;-61
2023/03/31 05:25:19;;;;;;;7.63;1.95;;;;;;;;;;5045517;28;20086;-60
2023/03/31 05:27:49;;;;;;;5.88;2.30;;;;;;;;;;5059075;28;20035;-60
2023/03/31 05:30:15;;;;;;;8.95;2.35;;;;;;;;;;5052320;28;20135;-61
2023/03/31 05:32:40;;;;;;;7.97;2.40;;;;;;;;;;5043739;28;20932;-60
2023/03/31 05:35:06;;;;;;;9.20;2.17;;;;;;;;;;5040828;28;20025;-61
2023/03/31 05:37:32;;;;;;;9.10;2.40;;;;;;;;;;5038545;28;20032;-61
2023/03/31 05:39:57;;;;;;;9.10;2.10;;;;;;;;;;5048334;28;20028;-60
2023/03/31 05:42:23;;;;;;;7.88;2.05;;;;;;;;;;5044302;28;20020;-61
2023/03/31 05:44:48;;;;;;;9.15;2.15;;;;;;;;;;5042248;28;20029;-61
2023/03/31 05:47:13;;;;;;;5.25;2.38;;;;;;;;;;5052389;28;20028;-63
2023/03/31 05:49:39;;;;;;;6.75;1.88;;;;;;;;;;5066812;28;20032;-61
2023/03/31 05:52:05;;;;;;;14.98;2.67;;;;;;;;;;5059382;28;20031;-61
2023/03/31 05:54:31;;;;;;;4.85;1.85;;;;;;;;;;5048157;28;20859;-60
2023/03/31 05:56:56;;;;;;;9.23;2.40;;;;;;;;;;5063393;28;20033;-62
2023/03/31 05:59:21;;;;;;;4.22;1.90;;;;;;;;;;5074628;28;20355;-61
2023/03/31 06:01:47;;;;;;;9.07;2.67;;;;;;;;;;5047730;28;20085;-60
2023/03/31 06:04:12;;;;;;;3.88;1.65;;;;;;;;;;5041126;28;20498;-60
2023/03/31 06:06:37;;;;;;;8.20;2.22;;;;;;;;;;5068330;28;20830;-63
2023/03/31 06:09:03;;;;;;;5.70;2.05;;;;;;;;;;5054285;28;20020;-61
2023/03/31 06:11:29;;;;;;;8.98;2.50;;;;;;;;;;5048591;28;20037;-61
2023/03/31 06:13:54;;;;;;;7.82;2.53;;;;;;;;;;5036932;28;20931;-60
2023/03/31 06:16:19;;;;;;;8.60;3.13;;;;;;;;;;5073497;28;20024;-63
2023/03/31 06:18:45;;;;;;;6.70;2.40;;;;;;;;;;5073096;28;20036;-61
2023/03/31 06:21:11;;;;;;;8.57;2.25;;;;;;;;;;5072792;28;20063;-61
2023/03/31 06:23:36;;;;;;;7.72;3.10;;;;;;;;;;5082266;28;20099;-63
2023/03/31 06:26:07;;;;;;;7.15;2.97;;;;;;;;;;5082053;28;20102;-62
2023/03/31 06:28:33;;;;;;;7.70;2.35;;;;;;;;;;5074151;28;20103;-62
2023/03/31 06:31:08;;;;;;;5.35;2.25;;;;;;;;;;5074586;28;20481;-61
2023/03/31 06:33:33;;;;;;;6.07;2.25;;;;;;;;;;5072299;28;20023;-61
2023/03/31 06:36:00;;;;;;;6.88;2.83;;;;;;;;;;5087247;28;20080;-62
2023/03/31 06:38:25;;;;;;;6.43;2.55;;;;;;;;;;5077310;28;20043;-63
2023/03/31 06:40:51;;;;;;;8.65;2.92;;;;;;;;;;5074249;28;20025;-61
2023/03/31 06:43:16;;;;;;;10.00;2.85;;;;;;;;;;5071955;28;20399;-61
2023/03/31 06:45:41;;;;;;;7.18;2.67;;;;;;;;;;5081354;28;20033;-61
2023/03/31 06:48:06;;;;;;;9.38;2.78;;;;;;;;;;5071620;28;21197;-61
2023/03/31 06:50:32;;;;;;;14.45;2.67;;;;;;;;;;5079569;28;20078;-61
2023/03/31 06:52:57;;;;;;;9.73;2.88;;;;;;;;;;5083808;28;20024;-60
2023/03/31 06:55:23;;;;;;;7.93;2.60;;;;;;;;;;5082608;28;20074;-61
2023/03/31 06:57:48;;;;;;;13.25;3.05;;;;;;;;;;5072856;28;20073;-60
2023/03/31 07:00:13;;;;;;;8.02;2.75;;;;;;;;;;5075664;28;20031;-62
2023/03/31 07:02:39;;;;;;;12.13;3.20;;;;;;;;;;5081394;28;20040;-62
2023/03/31 07:05:04;;;;;;;11.52;3.20;;;;;;;;;;5071378;28;20528;-62
2023/03/31 07:07:31;;;;;;;8.07;2.80;;;;;;;;;;5079174;28;20030;-62
2023/03/31 07:09:56;;;;;;;15.75;3.60;;;;;;;;;;5071276;28;20020;-62
2023/03/31 07:12:21;;;;;;;10.85;3.35;;;;;;;;;;5084693;28;20043;-62
2023/03/31 07:14:47;;;;;;;8.75;2.78;;;;;;;;;;5071522;28;20051;-62
2023/03/31 07:17:12;;;;;;;8.40;3.33;;;;;;;;;;5076124;28;20040;-61
2023/03/31 07:19:40;;;;;;;10.60;3.45;;;;;;;;;;5077041;28;20040;-62
2023/03/31 07:22:06;;;;;;;20.52;3.95;;;;;;;;;;5073984;28;20046;-60
2023/03/31 07:24:31;;;;;;;8.10;3.60;;;;;;;;;;5083208;28;20101;-60
2023/03/31 07:26:56;;;;;;;8.80;3.28;;;;;;;;;;5073802;28;20033;-61
2023/03/31 07:29:22;;;;;;;14.50;4.10;;;;;;;;;;5083423;28;20060;-62
2023/03/31 07:31:47;;;;;;;11.60;2.97;;;;;;;;;;5072336;28;20028;-61
2023/03/31 07:34:15;;;;;;;10.40;3.88;;;;;;;;;;5083797;28;20099;-60
2023/03/31 07:36:40;;;;;;;8.25;3.22;;;;;;;;;;5083945;28;20596;-62
2023/03/31 07:39:06;;;;;;;20.27;4.30;;;;;;;;;;5090426;28;20017;-62
2023/03/31 07:41:31;;;;;;;10.20;3.75;;;;;;;;;;5075592;28;20364;-61
2023/03/31 07:43:56;;;;;;;11.93;3.33;;;;;;;;;;5081239;28;20029;-62
2023/03/31 07:46:24;;;;;;;9.57;3.60;;;;;;;;;;5071229;28;20025;-62
2023/03/31 07:48:49;;;;;;;10.90;3.58;;;;;;;;;;5080689;28;20052;-61
2023/03/31 07:51:16;;;;;;;8.18;3.20;;;;;;;;;;5072044;28;20059;-62
2023/03/31 07:53:41;;;;;;;12.05;4.68;;;;;;;;;;5078680;28;20077;-62
2023/03/31 07:56:07;;;;;;;6.43;2.83;;;;;;;;;;5071087;28;20387;-62
2023/03/31 07:58:32;;;;;;;9.13;3.78;;;;;;;;;;5077030;28;20107;-62
2023/03/31 08:00:57;;;;;;;8.65;3.70;;;;;;;;;;5070383;28;20545;-61
2023/03/31 08:03:22;;;;;;;12.07;4.18;;;;;;;;;;5071173;28;20032;-60
2023/03/31 08:05:50;;;;;;;15.70;4.75;;;;;;;;;;5058673;28;20028;-60
2023/03/31 08:08:15;;;;;;;8.10;3.50;;;;;;;;;;5066562;28;20024;-61
2023/03/31 08:10:41;;;;;;;9.02;3.72;;;;;;;;;;5070708;28;20074;-62
2023/03/31 08:13:06;;;;;;;13.57;3.92;;;;;;;;;;5073611;28;20028;-60
2023/03/31 08:15:31;;;;;;;13.50;5.10;;;;;;;;;;5071948;28;20025;-60
2023/03/31 08:17:56;;;;;;;14.20;4.15;;;;;;;;;;5073165;28;20501;-60
2023/03/31 08:20:22;;;;;;;13.50;4.38;;;;;;;;;;5070948;28;20028;-61
2023/03/31 08:22:47;;;;;;;9.68;4.05;;;;;;;;;;5073497;28;20028;-60
2023/03/31 08:25:12;;;;;;;12.20;4.95;;;;;;;;;;5070480;28;20028;-61
2023/03/31 08:27:39;;;;;;;9.80;4.18;;;;;;;;;;5060869;28;20104;-60
2023/03/31 08:30:05;;;;;;;10.30;3.72;;;;;;;;;;5055545;28;20030;-60
2023/03/31 08:32:31;;;;;;;9.88;4.25;;;;;;;;;;5054995;28;20057;-61
2023/03/31 08:34:57;;;;;;;14.65;4.55;;;;;;;;;;5054683;28;20032;-60
2023/03/31 08:37:23;;;;;;;10.80;4.90;;;;;;;;;;5046591;28;20479;-60
2023/03/31 08:39:48;;;;;;;9.05;3.92;;;;;;;;;;5073680;28;20020;-61
2023/03/31 08:42:22;;;;;;;12.82;4.53;;;;;;;;;;5081548;28;20032;-60
2023/03/31 08:44:47;;;;;;;12.57;4.85;;;;;;;;;;5075618;28;20028;-61
2023/03/31 08:47:17;;;;;;;13.83;4.77;;;;;;;;;;5082211;28;20009;-61
2023/03/31 08:49:44;;;;;;;10.70;3.90;;;;;;;;;;5078257;28;20633;-60
2023/03/31 08:52:13;;;;;;;10.88;4.57;;;;;;;;;;5069781;28;20394;-60
2023/03/31 08:54:41;;;;;;;12.35;4.75;;;;;;;;;;5035563;28;20134;-60
2023/03/31 08:57:11;;;;;;;11.93;4.72;;;;;;;;;;5085924;28;20032;-61
2023/03/31 08:59:37;;;;;;;12.43;4.45;;;;;;;;;;5074029;28;20366;-64
2023/03/31 09:02:09;;;;;;;16.52;5.80;;;;;;;;;;5073728;28;20056;-63
2023/03/31 09:04:52;;;;;;;14.90;5.05;;;;;;;;;;5078229;28;20040;-63
2023/03/31 09:07:33;;;;;;;11.75;4.32;;;;;;;;;;5073510;28;20039;-63
2023/03/31 09:10:02;;;;;;;18.20;5.47;;;;;;;;;;5085059;28;20031;-63
2023/03/31 09:12:46;;;;;;;13.65;4.93;;;;;;;;;;5080368;28;20024;-61
2023/03/31 09:15:30;;;;;;;17.13;4.70;;;;;;;;;;5071821;28;20017;-60
2023/03/31 09:17:58;;;;;;;15.43;4.53;;;;;;;;;;5072917;28;20052;-61
2023/03/31 09:20:23;;;;;;;17.42;4.60;;;;;;;;;;5081791;28;20032;-61
2023/03/31 09:22:54;;;;;;;11.50;4.60;;;;;;;;;;5076091;28;20028;-60
2023/03/31 09:25:22;;;;;;;19.38;4.72;;;;;;;;;;5075867;28;20021;-61
2023/03/31 09:27:49;;;;;;;13.77;4.72;;;;;;;;;;5077986;28;20359;-60
2023/03/31 09:30:20;;;;;;;11.15;4.05;;;;;;;;;;5074135;28;20040;-61
2023/03/31 09:32:47;;;;;;;9.15;3.63;;;;;;;;;;5076001;28;20030;-60
2023/03/31 09:35:24;;;;;;;12.00;3.90;;;;;;;;;;5074163;28;20032;-61
2023/03/31 09:37:49;;;;;;;16.30;4.20;;;;;;;;;;5084534;28;20109;-60
2023/03/31 09:40:22;;;;;;;13.07;4.43;;;;;;;;;;5076435;28;20064;-61
2023/03/31 09:42:53;;;;;;;13.05;4.72;;;;;;;;;;5077863;28;20072;-60
2023/03/31 09:45:19;;;;;;;15.63;4.00;;;;;;;;;;5071098;28;20024;-61
2023/03/31 09:47:52;;;;;;;8.57;3.90;;;;;;;;;;5072980;28;20066;-61
2023/03/31 09:50:19;;;;;;;12.30;4.15;;;;;;;;;;5072986;28;20029;-61
2023/03/31 09:52:50;;;;;;;12.32;4.25;;;;;;;;;;5074175;28;20028;-61
2023/03/31 09:55:24;;;;;;;8.80;3.67;;;;;;;;;;5072792;28;20036;-61
2023/03/31 09:57:49;;;;;;;12.60;4.18;;;;;;;;;;5085132;28;20122;-62
2023/03/31 10:00:19;;;;;;;6.45;2.67;;;;;;;;;;5072756;28;20040;-61
2023/03/31 10:02:49;;;;;;;12.13;3.78;;;;;;;;;;5076003;28;20017;-61
2023/03/31 10:05:31;;;;;;;13.68;4.20;;;;;;;;;;5072445;28;20028;-61
2023/03/31 10:08:12;;;;;;;13.13;3.45;;;;;;;;;;5075414;28;20031;-62
2023/03/31 10:10:42;;;;;;;9.10;3.35;;;;;;;;;;5090996;28;20394;-61
2023/03/31 10:13:09;;;;;;;10.38;3.28;;;;;;;;;;5079621;28;20050;-61
2023/03/31 10:15:37;;;;;;;16.23;3.58;;;;;;;;;;5078972;28;20040;-61
2023/03/31 10:18:03;;;;;;;7.22;3.20;;;;;;;;;;5075225;28;20028;-61
2023/03/31 10:20:35;;;;;;;4.43;2.08;;;;;;;;;;5072947;28;20025;-61
2023/03/31 10:23:31;;;;;;;9.15;3.28;;;;;;;;;;5074786;28;20024;-61
2023/03/31 10:25:56;;;;;;;7.95;2.60;;;;;;;;;;5068688;28;20033;-62
2023/03/31 10:28:22;;;;;;;12.48;3.53;;;;;;;;;;5075855;28;20020;-62
2023/03/31 10:30:51;;;;;;;10.63;3.15;;;;;;;;;;5074641;28;20029;-62
2023/03/31 10:33:23;;;;;;;9.10;3.20;;;;;;;;;;5074576;28;20031;-62
2023/03/31 10:35:53;;;;;;;7.35;2.80;;;;;;;;;;5070914;28;20032;-61
2023/03/31 10:38:33;;;;;;;19.30;4.05;;;;;;;;;;5073892;28;20035;-62
2023/03/31 10:40:59;;;;;;;9.50;3.70;;;;;;;;;;5080563;28;20382;-62
2023/03/31 10:43:26;;;;;;;14.50;5.10;;;;;;;;;;5076923;28;20020;-61
2023/03/31 10:45:55;;;;;;;9.30;3.83;;;;;;;;;;5053045;28;20024;-61
2023/03/31 10:48:25;;;;;;;11.27;4.38;;;;;;;;;;5046628;28;20923;-61
2023/03/31 10:50:50;;;;;;;14.55;4.10;;;;;;;;;;5049989;28;20123;-61
2023/03/31 10:53:16;;;;;;;9.23;3.75;;;;;;;;;;5057809;28;20763;-61
2023/03/31 10:55:53;;;;;;;12.50;4.32;;;;;;;;;;5039388;28;20024;-62
2023/03/31 10:58:25;;;;;;;22.33;4.70;;;;;;;;;;5045192;28;20133;-61
2023/03/31 11:01:05;;;;;;;15.75;4.95;;;;;;;;;;5037049;28;20056;-61
2023/03/31 11:03:37;;;;;;;12.23;4.68;;;;;;;;;;5072169;28;20078;-61
2023/03/31 11:06:21;;;;;;;9.93;4.22;;;;;;;;;;5071784;28;20059;-63
2023/03/31 11:08:58;;;;;;;15.00;5.10;;;;;;;;;;5073207;28;20078;-64
2023/03/31 11:11:30;;;;;;;17.42;4.97;;;;;;;;;;5046958;28;20020;-63
2023/03/31 11:14:11;;;;;;;11.80;5.43;;;;;;;;;;5030526;28;20135;-63
2023/03/31 11:16:41;;;;;;;22.67;6.32;;;;;;;;;;5045705;28;20114;-63
2023/03/31 11:19:24;;;;;;;15.73;4.45;;;;;;;;;;5032068;28;20035;-63
2023/03/31 11:21:55;;;;;;;12.10;4.90;;;;;;;;;;5033621;28;20435;-63
2023/03/31 11:24:30;;;;;;;15.68;5.78;;;;;;;;;;5050685;28;20872;-63
2023/03/31 11:27:14;;;;;;;12.55;4.60;;;;;;;;;;5045693;28;20024;-63
2023/03/31 11:29:47;;;;;;;12.50;5.20;;;;;;;;;;5048896;28;20042;-63
2023/03/31 11:32:25;;;;;;;13.63;3.85;;;;;;;;;;5049278;28;20020;-63
2023/03/31 11:34:52;;;;;;;10.48;4.63;;;;;;;;;;5058976;28;20052;-64
2023/03/31 11:37:23;;;;;;;14.75;3.60;;;;;;;;;;5061783;28;20044;-63
2023/03/31 11:39:51;;;;;;;7.43;3.60;;;;;;;;;;5078553;28;20036;-62
2023/03/31 11:42:28;;;;;;;7.88;3.75;;;;;;;;;;5070859;28;20378;-62
2023/03/31 11:44:59;;;;;;;7.43;3.33;;;;;;;;;;5081410;28;20020;-61
2023/03/31 11:47:27;;;;;;;8.88;3.80;;;;;;;;;;5070599;28;20024;-62
2023/03/31 11:49:58;;;;;;;7.25;3.25;;;;;;;;;;5086255;28;20074;-62
2023/03/31 11:52:33;;;;;;;9.13;3.35;;;;;;;;;;5086965;28;20024;-62
2023/03/31 11:54:58;;;;;;;7.50;3.20;;;;;;;;;;5079604;28;20025;-69
2023/03/31 11:57:32;;;;;;;13.18;3.92;;;;;;;;;;5071719;28;20035;-60
2023/03/31 12:00:16;;;;;;;9.02;3.95;;;;;;;;;;5082822;28;20031;-63
2023/03/31 12:02:50;;;;;;;5.85;3.08;;;;;;;;;;5076407;28;20353;-62
2023/03/31 12:05:15;;;;;;;;;;;;;;;;;;5080856;28;20056;-63
2023/03/31 12:07:49;;;;;;;7.82;2.92;;;;;;;;;;5070511;28;19916;-62
2023/03/31 12:10:15;;;;;;;;;;;;;;;;;;5088466;28;20030;-63
2023/03/31 12:12:49;;;;;;;5.97;2.33;;;;;;;;;;5077519;28;21212;-60
2023/03/31 12:15:14;;;;;;;;;;;;;;;;;;5077761;28;20487;-61
2023/03/31 12:17:42;;;;;;;6.18;2.88;;;;;;;;;;5073903;28;20006;-62
2023/03/31 12:20:13;;;;;;;6.25;2.38;;;;;;;;;;5052115;28;20429;-60
2023/03/31 12:22:40;;;;;;;8.13;3.28;;;;;;;;;;5074167;28;20017;-59
2023/03/31 12:25:11;;;;;;;5.88;2.45;;;;;;;;;;5074172;28;20425;-63
2023/03/31 12:27:40;;;;;;;7.72;2.80;;;;;;;;;;5075013;28;20539;-60
2023/03/31 12:30:09;;;;;;;9.23;3.65;;;;;;;;;;5075344;28;20051;-61
2023/03/31 12:32:37;;;;;;;11.50;2.88;;;;;;;;;;5073268;28;20029;-60
2023/03/31 12:35:21;;;;;;;6.63;2.65;;;;;;;;;;5085937;28;20023;-62
2023/03/31 12:37:52;;;;;;;8.40;2.85;;;;;;;;;;5073894;28;20036;-60
2023/03/31 12:40:30;;;;;;;8.95;3.00;;;;;;;;;;5086592;28;20028;-60
2023/03/31 12:43:17;;;;;;;7.10;2.78;;;;;;;;;;5073689;28;20074;-60
2023/03/31 12:45:45;;;;;;;9.18;2.60;;;;;;;;;;5083023;28;20072;-60
2023/03/31 12:48:16;;;;;;;7.10;3.00;;;;;;;;;;5082309;28;20024;-60
2023/03/31 12:51:00;;;;;;;8.90;2.78;;;;;;;;;;5080037;28;20024;-60
2023/03/31 12:53:30;;;;;;;7.30;2.45;;;;;;;;;;5074415;28;20021;-62
2023/03/31 12:55:58;;;;;;;8.45;3.03;;;;;;;;;;5077665;28;20471;-62
2023/03/31 12:58:25;;;;;;;7.03;3.00;;;;;;;;;;5073058;28;20495;-61
2023/03/31 13:01:00;;;;;;;13.10;2.97;;;;;;;;;;5080276;28;20039;-62
2023/03/31 13:03:35;;;;;;;7.38;2.88;;;;;;;;;;5073747;28;20044;-63
2023/03/31 13:06:01;;;;;;;6.28;2.55;;;;;;;;;;5073480;28;20020;-61
2023/03/31 13:08:45;;;;;;;12.43;3.65;;;;;;;;;;5073170;28;20017;-62
2023/03/31 13:11:10;;;;;;;7.73;2.53;;;;;;;;;;5073029;28;20134;-62
2023/03/31 13:13:39;;;;;;;5.70;2.58;;;;;;;;;;5075762;28;20036;-60
2023/03/31 13:16:05;;;;;;;11.25;2.67;;;;;;;;;;5078635;28;20111;-60
2023/03/31 13:18:32;;;;;;;6.57;2.47;;;;;;;;;;5071215;28;20536;-62
2023/03/31 13:20:58;;;;;;;11.23;2.80;;;;;;;;;;5076386;28;20119;-61
2023/03/31 13:23:27;;;;;;;11.82;3.08;;;;;;;;;;5072915;28;20032;-61
2023/03/31 13:25:56;;;;;;;8.52;3.45;;;;;;;;;;5070875;28;20526;-61
2023/03/31 13:28:21;;;;;;;10.02;3.17;;;;;;;;;;5077546;28;20029;-61
2023/03/31 13:30:48;;;;;;;6.17;3.10;;;;;;;;;;5077679;28;20044;-62
2023/03/31 13:33:22;;;;;;;14.75;3.38;;;;;;;;;;5073110;28;20259;-61
2023/03/31 13:35:49;;;;;;;10.85;3.60;;;;;;;;;;5078383;28;20051;-61
2023/03/31 13:38:18;;;;;;;8.70;3.00;;;;;;;;;;5078433;28;20105;-62
2023/03/31 13:41:02;;;;;;;12.93;3.33;;;;;;;;;;5078771;28;20035;-62
2023/03/31 13:43:36;;;;;;;13.73;3.83;;;;;;;;;;5076777;28;20052;-62
2023/03/31 13:46:02;;;;;;;;;;;;;;;;;;5077397;28;20404;-62
2023/03/31 13:48:30;;;;;;;7.13;3.67;;;;;;;;;;5072186;28;20026;-62
2023/03/31 13:50:55;;;;;;;11.45;3.95;;;;;;;;;;5074881;28;20033;-62
2023/03/31 13:53:38;;;;;;;10.13;4.28;;;;;;;;;;5073041;28;20032;-62
2023/03/31 13:56:07;;;;;;;11.15;3.97;;;;;;;;;;5074976;28;20468;-62
2023/03/31 13:58:51;;;;;;;13.13;4.10;;;;;;;;;;5085984;28;20055;-62
2023/03/31 14:01:26;;;;;;;11.93;3.83;;;;;;;;;;5074319;28;20028;-62
2023/03/31 14:03:51;;;;;;;;;;;;;;;;;;5072815;28;20279;-61
2023/03/31 14:06:22;;;;;;;14.30;4.28;;;;;;;;;;5077329;28;19923;-61
2023/03/31 14:08:59;;;;;;;10.57;3.20;;;;;;;;;;5072609;28;20028;-61
2023/03/31 14:11:29;;;;;;;13.85;4.63;;;;;;;;;;5083793;28;20547;-62
2023/03/31 14:14:10;;;;;;;11.57;3.78;;;;;;;;;;5072267;28;20028;-62
2023/03/31 14:16:47;;;;;;;11.75;3.30;;;;;;;;;;5068599;28;20139;-62
2023/03/31 14:19:31;;;;;;;10.90;3.58;;;;;;;;;;5065646;28;20625;-62
2023/03/31 14:21:59;;;;;;;7.80;3.05;;;;;;;;;;5063368;28;20485;-62
2023/03/31 14:24:29;;;;;;;10.73;3.35;;;;;;;;;;5062087;28;20517;-61
2023/03/31 14:27:11;;;;;;;6.13;2.72;;;;;;;;;;5063239;28;20052;-61
2023/03/31 14:29:36;;;;;;;8.65;2.42;;;;;;;;;;5067455;28;20017;-61
2023/03/31 14:32:01;;;;;;;9.68;3.42;;;;;;;;;;5059739;28;20036;-61
2023/03/31 14:34:26;;;;;;;10.75;2.42;;;;;;;;;;5061867;28;20162;-61
2023/03/31 14:36:57;;;;;;;9.10;2.77;;;;;;;;;;5073014;28;20024;-61
2023/03/31 14:39:25;;;;;;;8.50;3.08;;;;;;;;;;5078277;28;20275;-60
2023/03/31 14:41:54;;;;;;;6.68;2.60;;;;;;;;;;5075240;28;20037;-61
2023/03/31 14:44:19;;;;;;;6.47;2.55;;;;;;;;;;5071870;28;20020;-61
2023/03/31 14:46:45;;;;;;;9.18;2.83;;;;;;;;;;5073912;28;20070;-61
2023/03/31 14:49:21;;;;;;;10.65;2.67;;;;;;;;;;5083139;28;20502;-62